Time;durP1;ratioP1;P1;durP2;ratioP2;P2;SDS_P1;SDS_P2;PMS_P1;PMS_P2;Temp;Humidity;BMP_temperature;BMP_pressure;BME280_temperature;BME280_humidity;BME280_pressure;Samples;Min_cycle;Max_cycle;Signal;HPM_P1;HPM_P2
2023/01/25 00:02:05;;;;;;;;;39.00;29.00;;;;;;;;5085141;28;61730;-76
2023/01/25 00:04:31;;;;;;;;;43.00;32.25;;;;;;;;5084021;28;61954;-76
2023/01/25 00:06:57;;;;;;;;;35.50;30.00;;;;;;;;5084334;28;62343;-76
2023/01/25 00:09:23;;;;;;;;;40.75;26.75;;;;;;;;5084233;28;61939;-76
2023/01/25 00:11:48;;;;;;;;;52.50;33.00;;;;;;;;5096068;27;62014;-76
2023/01/25 00:14:14;;;;;;;;;38.25;27.75;;;;;;;;5103727;27;62492;-76
2023/01/25 00:16:40;;;;;;;;;40.00;31.00;;;;;;;;5105250;27;61809;-76
2023/01/25 00:19:06;;;;;;;;;42.00;31.25;;;;;;;;5105117;27;61922;-76
2023/01/25 00:21:32;;;;;;;;;35.50;27.25;;;;;;;;5085888;27;61884;-76
2023/01/25 00:23:58;;;;;;;;;38.50;28.75;;;;;;;;5082191;28;64114;-76
2023/01/25 00:26:23;;;;;;;;;46.50;33.50;;;;;;;;5084418;28;61668;-76
2023/01/25 00:28:49;;;;;;;;;39.25;29.50;;;;;;;;5084074;28;61876;-76
2023/01/25 00:31:16;;;;;;;;;45.50;35.00;;;;;;;;5083248;27;62225;-76
2023/01/25 00:34:05;;;;;;;;;39.75;26.00;;;;;;;;5104028;27;61893;-76
2023/01/25 00:36:39;;;;;;;;;28.25;26.50;;;;;;;;5104396;27;61794;-76
2023/01/25 00:39:05;;;;;;;;;47.25;38.50;;;;;;;;5104215;27;61801;-76
2023/01/25 00:41:30;;;;;;;;;42.25;31.75;;;;;;;;5104806;27;62050;-76
2023/01/25 00:43:56;;;;;;;;;43.00;29.25;;;;;;;;5103056;27;62001;-76
2023/01/25 00:46:21;;;;;;;;;43.50;32.50;;;;;;;;5104126;27;61945;-76
2023/01/25 00:48:47;;;;;;;;;40.00;28.25;;;;;;;;5104687;27;61705;-76
2023/01/25 00:51:12;;;;;;;;;35.75;27.75;;;;;;;;5104352;27;61886;-76
2023/01/25 00:53:37;;;;;;;;;33.00;27.25;;;;;;;;5103604;27;61751;-76
2023/01/25 00:56:03;;;;;;;;;31.50;27.50;;;;;;;;5102706;27;61822;-76
2023/01/25 00:58:28;;;;;;;;;38.25;29.50;;;;;;;;5104128;27;61686;-76
2023/01/25 01:00:54;;;;;;;;;46.50;29.50;;;;;;;;5104656;27;61763;-76
2023/01/25 01:03:20;;;;;;;;;46.75;33.00;;;;;;;;5103587;27;61798;-76
2023/01/25 01:05:45;;;;;;;;;47.25;34.50;;;;;;;;5104125;27;61796;-76
2023/01/25 01:08:11;;;;;;;;;40.50;33.25;;;;;;;;5101761;27;61838;-76
2023/01/25 01:10:37;;;;;;;;;47.50;36.25;;;;;;;;5104161;27;61750;-76
2023/01/25 01:13:02;;;;;;;;;51.50;34.00;;;;;;;;5101681;27;61934;-76
2023/01/25 01:15:27;;;;;;;;;47.50;33.50;;;;;;;;5102224;27;61996;-76
2023/01/25 01:17:52;;;;;;;;;40.00;33.00;;;;;;;;5104260;27;61862;-76
2023/01/25 01:20:18;;;;;;;;;42.00;32.50;;;;;;;;5095582;27;62238;-76
2023/01/25 01:22:43;;;;;;;;;44.00;31.50;;;;;;;;5082376;28;62006;-76
2023/01/25 01:25:09;;;;;;;;;49.25;35.00;;;;;;;;5083144;28;61744;-76
2023/01/25 01:27:34;;;;;;;;;34.75;28.25;;;;;;;;5081603;28;61796;-76
2023/01/25 01:30:00;;;;;;;;;50.00;35.00;;;;;;;;5082297;28;62166;-76
2023/01/25 01:32:25;;;;;;;;;44.25;31.75;;;;;;;;5082593;28;63259;-76
2023/01/25 01:34:50;;;;;;;;;47.50;32.75;;;;;;;;5083079;28;61907;-76
2023/01/25 01:37:16;;;;;;;;;43.50;33.50;;;;;;;;5083124;28;61819;-76
2023/01/25 01:39:41;;;;;;;;;41.25;35.25;;;;;;;;5100921;27;61782;-76
2023/01/25 01:42:06;;;;;;;;;45.50;33.25;;;;;;;;5102479;27;62935;-76
2023/01/25 01:44:45;;;;;;;;;52.00;35.00;;;;;;;;5103382;27;61755;-76
2023/01/25 01:47:14;;;;;;;;;50.25;31.50;;;;;;;;5102380;27;61804;-76
2023/01/25 01:49:39;;;;;;;;;42.00;29.25;;;;;;;;5103459;27;61762;-76
2023/01/25 01:52:11;;;;;;;;;49.00;36.75;;;;;;;;5102668;27;61844;-76
2023/01/25 01:54:42;;;;;;;;;43.00;30.00;;;;;;;;5100496;27;61891;-76
2023/01/25 01:57:09;;;;;;;;;60.50;38.75;;;;;;;;5103182;27;61763;-76
2023/01/25 01:59:56;;;;;;;;;54.00;32.00;;;;;;;;5101930;27;61821;-76
2023/01/25 02:02:23;;;;;;;;;38.75;32.75;;;;;;;;5102534;27;62857;-76
2023/01/25 02:04:50;;;;;;;;;41.25;27.50;;;;;;;;5103104;27;61916;-76
2023/01/25 02:07:29;;;;;;;;;37.50;20.50;;;;;;;;5103130;27;61741;-76
2023/01/25 02:09:55;;;;;;;;;48.25;34.25;;;;;;;;5102534;27;61736;-76
2023/01/25 02:12:21;;;;;;;;;56.25;36.25;;;;;;;;5100909;27;64928;-76
2023/01/25 02:14:49;;;;;;;;;38.75;28.50;;;;;;;;5102811;27;61771;-76
2023/01/25 02:17:16;;;;;;;;;52.00;35.25;;;;;;;;5103213;27;61810;-76
2023/01/25 02:20:00;;;;;;;;;56.00;38.25;;;;;;;;5101163;27;61692;-76
2023/01/25 02:22:33;;;;;;;;;50.75;32.50;;;;;;;;5082010;28;62825;-76
2023/01/25 02:25:03;;;;;;;;;55.75;37.00;;;;;;;;5082097;28;61806;-76
2023/01/25 02:27:28;;;;;;;;;36.25;32.25;;;;;;;;5098168;27;61679;-76
2023/01/25 02:29:53;;;;;;;;;55.00;38.25;;;;;;;;5082665;28;61723;-76
2023/01/25 02:32:19;;;;;;;;;46.50;31.75;;;;;;;;5081769;28;61696;-76
2023/01/25 02:34:44;;;;;;;;;48.00;34.00;;;;;;;;5082124;28;62111;-76
2023/01/25 02:37:13;;;;;;;;;50.00;31.00;;;;;;;;5082449;28;62176;-76
2023/01/25 02:39:39;;;;;;;;;39.50;30.75;;;;;;;;5100767;27;62247;-76
2023/01/25 02:42:05;;;;;;;;;35.75;32.25;;;;;;;;5100895;27;64328;-76
2023/01/25 02:44:31;;;;;;;;;43.25;35.25;;;;;;;;5102767;27;61949;-76
2023/01/25 02:46:56;;;;;;;;;45.50;39.00;;;;;;;;5102620;27;61718;-76
2023/01/25 02:49:22;;;;;;;;;42.50;33.25;;;;;;;;5103094;27;61866;-76
2023/01/25 02:51:48;;;;;;;;;48.75;38.25;;;;;;;;5101556;27;62600;-76
2023/01/25 02:54:15;;;;;;;;;45.50;31.75;;;;;;;;5101985;27;61904;-76
2023/01/25 02:56:40;;;;;;;;;56.25;39.50;;;;;;;;5101160;27;61946;-76
2023/01/25 02:59:06;;;;;;;;;56.50;37.75;;;;;;;;5101466;27;62210;-76
2023/01/25 03:01:32;;;;;;;;;43.75;36.00;;;;;;;;5101938;27;61880;-76
2023/01/25 03:03:57;;;;;;;;;48.50;34.50;;;;;;;;5101901;27;62014;-76
2023/01/25 03:06:23;;;;;;;;;56.00;38.50;;;;;;;;5104004;27;61799;-76
2023/01/25 03:08:48;;;;;;;;;55.50;34.25;;;;;;;;5105443;27;61697;-76
2023/01/25 03:11:14;;;;;;;;;52.75;41.75;;;;;;;;5105484;27;62049;-76
2023/01/25 03:13:39;;;;;;;;;44.25;34.25;;;;;;;;5104230;27;61756;-76
2023/01/25 03:16:06;;;;;;;;;40.50;33.00;;;;;;;;5104396;27;61750;-76
2023/01/25 03:18:32;;;;;;;;;46.00;37.50;;;;;;;;5106041;27;61737;-76
2023/01/25 03:21:03;;;;;;;;;46.75;35.25;;;;;;;;5092683;27;61798;-76
2023/01/25 03:23:28;;;;;;;;;59.50;39.50;;;;;;;;5084741;28;61979;-76
2023/01/25 03:25:53;;;;;;;;;44.25;38.50;;;;;;;;5085075;28;61839;-76
2023/01/25 03:28:18;;;;;;;;;47.50;35.75;;;;;;;;5085260;28;61991;-76
2023/01/25 03:30:48;;;;;;;;;65.25;43.00;;;;;;;;5084889;28;62656;-76
2023/01/25 03:33:14;;;;;;;;;58.25;40.25;;;;;;;;5083871;27;61793;-76
2023/01/25 03:35:39;;;;;;;;;49.25;40.25;;;;;;;;5085097;28;61774;-76
2023/01/25 03:38:04;;;;;;;;;58.50;33.75;;;;;;;;5087624;27;61911;-76
2023/01/25 03:40:29;;;;;;;;;47.75;37.50;;;;;;;;5103276;27;63697;-76
2023/01/25 03:42:55;;;;;;;;;45.75;37.00;;;;;;;;5105151;27;61668;-76
2023/01/25 03:45:20;;;;;;;;;56.50;38.75;;;;;;;;5105591;27;62374;-76
2023/01/25 03:47:45;;;;;;;;;41.25;33.50;;;;;;;;5105569;27;61869;-76
2023/01/25 03:50:10;;;;;;;;;51.00;40.50;;;;;;;;5103085;27;62113;-76
2023/01/25 03:55:30;;;;;;;;;49.00;34.50;;;;;;;;5105206;27;61822;-76
2023/01/25 03:57:56;;;;;;;;;57.00;39.75;;;;;;;;5103979;27;61905;-76
2023/01/25 04:00:21;;;;;;;;;50.25;37.25;;;;;;;;5104553;27;61814;-76
2023/01/25 04:02:46;;;;;;;;;45.50;36.50;;;;;;;;5103857;27;61910;-76
2023/01/25 04:05:12;;;;;;;;;65.50;42.25;;;;;;;;5105350;27;62099;-76
2023/01/25 04:07:37;;;;;;;;;59.75;37.50;;;;;;;;5104895;27;61962;-77
2023/01/25 04:10:03;;;;;;;;;57.50;36.50;;;;;;;;5103851;27;62643;-77
2023/01/25 04:12:28;;;;;;;;;48.25;37.50;;;;;;;;5104959;27;61906;-76
2023/01/25 04:14:53;;;;;;;;;65.25;42.50;;;;;;;;5105050;27;62265;-77
2023/01/25 04:17:19;;;;;;;;;56.00;42.75;;;;;;;;5104606;27;61727;-77
2023/01/25 04:19:44;;;;;;;;;36.75;29.25;;;;;;;;5102161;27;61865;-77
2023/01/25 04:22:09;;;;;;;;;43.00;33.00;;;;;;;;5083645;28;62228;-77
2023/01/25 04:24:35;;;;;;;;;53.75;38.50;;;;;;;;5082737;28;61751;-77
2023/01/25 04:27:00;;;;;;;;;42.75;34.75;;;;;;;;5084556;28;62095;-77
2023/01/25 04:29:25;;;;;;;;;54.75;38.00;;;;;;;;5082429;28;64422;-77
2023/01/25 04:31:50;;;;;;;;;29.75;23.75;;;;;;;;5083008;28;61963;-76
2023/01/25 04:34:16;;;;;;;;;53.50;36.25;;;;;;;;5083850;28;61880;-77
2023/01/25 04:36:41;;;;;;;;;53.00;33.75;;;;;;;;5083781;28;61924;-76
2023/01/25 04:39:06;;;;;;;;;43.25;32.75;;;;;;;;5097388;27;63471;-77
2023/01/25 04:41:31;;;;;;;;;49.00;33.50;;;;;;;;5104723;27;61952;-77
2023/01/25 04:43:57;;;;;;;;;48.50;35.75;;;;;;;;5104585;27;61794;-76
2023/01/25 04:46:22;;;;;;;;;45.00;27.00;;;;;;;;5102930;27;61694;-77
2023/01/25 04:48:47;;;;;;;;;52.25;30.00;;;;;;;;5103547;27;62354;-76
2023/01/25 04:51:13;;;;;;;;;62.25;36.75;;;;;;;;5104022;27;61679;-76
2023/01/25 04:53:39;;;;;;;;;51.75;37.50;;;;;;;;5104091;27;61944;-77
2023/01/25 04:56:04;;;;;;;;;34.75;26.00;;;;;;;;5102900;27;62213;-76
2023/01/25 04:58:29;;;;;;;;;36.75;31.25;;;;;;;;5103796;27;61813;-76
2023/01/25 05:00:58;;;;;;;;;41.75;29.00;;;;;;;;5104373;27;62300;-77
2023/01/25 05:03:24;;;;;;;;;39.25;28.50;;;;;;;;5102967;27;61896;-76
2023/01/25 05:05:49;;;;;;;;;40.50;26.75;;;;;;;;5102685;27;62192;-77
2023/01/25 05:08:14;;;;;;;;;27.50;22.00;;;;;;;;5102821;27;61856;-77
2023/01/25 05:10:39;;;;;;;;;41.25;34.25;;;;;;;;5103946;27;61870;-77
2023/01/25 05:13:05;;;;;;;;;38.00;30.50;;;;;;;;5104094;27;62249;-77
2023/01/25 05:15:30;;;;;;;;;38.75;29.25;;;;;;;;5103954;27;61844;-76
2023/01/25 05:17:55;;;;;;;;;43.00;32.25;;;;;;;;5103260;27;62109;-76
2023/01/25 05:20:21;;;;;;;;;32.50;30.00;;;;;;;;5088713;27;61790;-76
2023/01/25 05:22:46;;;;;;;;;40.75;32.75;;;;;;;;5062866;28;62072;-76
2023/01/25 05:26:59;;;;;;;;;45.00;31.25;;;;;;;;5063365;28;62064;-77
2023/01/25 05:27:56;;;;;;;;;26.25;22.75;;;;;;;;5062422;28;62575;-77
2023/01/25 05:30:22;;;;;;;;;42.00;23.50;;;;;;;;5043747;28;61639;-76
2023/01/25 05:32:48;;;;;;;;;46.25;31.00;;;;;;;;5062856;28;61695;-76
2023/01/25 05:35:14;;;;;;;;;28.50;24.00;;;;;;;;5063081;28;61844;-76
2023/01/25 05:37:39;;;;;;;;;34.75;22.00;;;;;;;;5063843;28;61700;-77
2023/01/25 05:40:04;;;;;;;;;40.75;28.75;;;;;;;;5064574;28;61920;-76
2023/01/25 05:42:30;;;;;;;;;36.50;24.50;;;;;;;;5083101;28;62299;-76
2023/01/25 05:44:55;;;;;;;;;27.75;24.50;;;;;;;;5083261;28;61868;-76
2023/01/25 05:47:20;;;;;;;;;14.50;13.00;;;;;;;;5081706;28;61975;-76
2023/01/25 05:49:46;;;;;;;;;29.00;16.75;;;;;;;;5083127;28;61761;-77
2023/01/25 05:52:14;;;;;;;;;25.25;18.00;;;;;;;;5082861;28;62570;-77
2023/01/25 05:54:40;;;;;;;;;13.25;7.25;;;;;;;;5083234;28;62535;-76
2023/01/25 05:57:05;;;;;;;;;20.00;16.25;;;;;;;;5082321;28;61807;-77
2023/01/25 05:59:30;;;;;;;;;31.50;17.50;;;;;;;;5082857;28;61913;-76
2023/01/25 06:01:56;;;;;;;;;22.25;16.00;;;;;;;;5064313;28;61933;-77
2023/01/25 06:04:22;;;;;;;;;14.25;10.50;;;;;;;;5082877;28;61708;-74
2023/01/25 06:06:47;;;;;;;;;17.25;10.50;;;;;;;;5082049;28;62587;-75
2023/01/25 06:09:12;;;;;;;;;20.75;19.25;;;;;;;;5082498;28;61876;-75
2023/01/25 06:11:38;;;;;;;;;16.25;14.75;;;;;;;;5080360;27;62835;-75
2023/01/25 06:14:03;;;;;;;;;25.25;18.00;;;;;;;;5103034;27;61786;-73
2023/01/25 06:16:28;;;;;;;;;20.00;13.25;;;;;;;;5101905;27;61928;-72
2023/01/25 06:18:53;;;;;;;;;18.25;15.25;;;;;;;;5103117;27;61991;-72
2023/01/25 06:21:19;;;;;;;;;15.50;15.50;;;;;;;;5102892;27;62020;-71
2023/01/25 06:23:44;;;;;;;;;20.75;15.75;;;;;;;;5103357;27;61981;-72
2023/01/25 06:26:11;;;;;;;;;21.50;13.00;;;;;;;;5102353;27;62639;-72
2023/01/25 06:28:37;;;;;;;;;17.50;15.25;;;;;;;;5102877;27;61783;-72
2023/01/25 06:31:03;;;;;;;;;18.75;11.00;;;;;;;;5101333;27;61920;-75
2023/01/25 06:33:29;;;;;;;;;19.25;15.75;;;;;;;;5102819;27;61742;-73
2023/01/25 06:35:57;;;;;;;;;23.00;13.50;;;;;;;;5100965;27;63852;-72
2023/01/25 06:38:23;;;;;;;;;14.25;12.25;;;;;;;;5100755;27;62119;-74
2023/01/25 06:40:48;;;;;;;;;23.50;15.75;;;;;;;;5103986;27;61664;-76
2023/01/25 06:43:13;;;;;;;;;18.00;16.25;;;;;;;;5106680;27;61754;-74
2023/01/25 06:45:39;;;;;;;;;17.25;12.50;;;;;;;;5105078;27;61941;-73
2023/01/25 06:48:04;;;;;;;;;18.00;14.75;;;;;;;;5106259;27;62087;-73
2023/01/25 06:50:29;;;;;;;;;17.50;15.25;;;;;;;;5104058;27;61790;-72
2023/01/25 06:52:56;;;;;;;;;17.50;12.75;;;;;;;;5105408;27;61772;-72
2023/01/25 06:55:22;;;;;;;;;25.50;17.00;;;;;;;;5100821;27;63631;-73
2023/01/25 06:57:48;;;;;;;;;27.25;21.00;;;;;;;;5106025;27;61798;-73
2023/01/25 07:00:15;;;;;;;;;19.25;16.00;;;;;;;;5105793;27;61964;-73
2023/01/25 07:02:40;;;;;;;;;21.50;15.75;;;;;;;;5104801;27;61892;-74
2023/01/25 07:05:05;;;;;;;;;19.75;15.75;;;;;;;;5105530;27;63066;-75
2023/01/25 07:07:31;;;;;;;;;22.25;19.25;;;;;;;;5105393;27;61900;-74
2023/01/25 07:09:59;;;;;;;;;18.50;13.75;;;;;;;;5104486;27;61946;-74
2023/01/25 07:12:24;;;;;;;;;36.00;28.50;;;;;;;;5106323;27;61973;-74
2023/01/25 07:14:50;;;;;;;;;13.75;10.50;;;;;;;;5104786;27;61878;-74
2023/01/25 07:17:15;;;;;;;;;14.75;12.00;;;;;;;;5106321;27;61731;-74
2023/01/25 07:19:41;;;;;;;;;43.25;32.25;;;;;;;;5105410;27;61921;-75
2023/01/25 07:22:07;;;;;;;;;31.00;17.00;;;;;;;;5105639;27;61783;-74
2023/01/25 07:24:32;;;;;;;;;27.25;20.00;;;;;;;;5105227;27;61990;-74
2023/01/25 07:26:57;;;;;;;;;20.75;20.50;;;;;;;;5105224;27;62024;-74
2023/01/25 07:29:22;;;;;;;;;33.50;21.00;;;;;;;;5104925;27;61911;-73
2023/01/25 07:31:49;;;;;;;;;34.75;27.75;;;;;;;;5106090;27;61743;-72
2023/01/25 07:34:14;;;;;;;;;20.25;17.75;;;;;;;;5105178;27;62688;-73
2023/01/25 07:36:42;;;;;;;;;27.00;20.00;;;;;;;;5103382;27;61763;-73
2023/01/25 07:39:11;;;;;;;;;41.00;26.75;;;;;;;;5103283;27;61717;-72
2023/01/25 07:41:36;;;;;;;;;36.25;23.75;;;;;;;;5105617;27;61814;-73
2023/01/25 07:44:02;;;;;;;;;23.25;16.75;;;;;;;;5104415;27;61758;-73
2023/01/25 07:46:28;;;;;;;;;32.50;27.00;;;;;;;;5104314;27;61950;-72
2023/01/25 07:48:53;;;;;;;;;30.50;16.75;;;;;;;;5105176;27;62049;-75
2023/01/25 07:51:22;;;;;;;;;25.50;19.75;;;;;;;;5104263;27;61912;-75
2023/01/25 07:53:58;;;;;;;;;31.25;21.25;;;;;;;;5102689;27;61806;-75
2023/01/25 07:56:25;;;;;;;;;30.75;22.75;;;;;;;;5103352;27;61812;-75
2023/01/25 07:58:54;;;;;;;;;33.25;19.50;;;;;;;;5102968;27;61829;-75
2023/01/25 08:01:20;;;;;;;;;29.50;22.75;;;;;;;;5105444;27;61893;-75
2023/01/25 08:03:46;;;;;;;;;22.00;18.75;;;;;;;;5103115;27;64378;-75
2023/01/25 08:06:12;;;;;;;;;27.50;22.75;;;;;;;;5105007;27;61909;-76
2023/01/25 08:08:42;;;;;;;;;20.50;19.75;;;;;;;;5103157;27;61900;-75
2023/01/25 08:11:12;;;;;;;;;26.25;22.50;;;;;;;;5105116;27;62112;-75
2023/01/25 08:13:37;;;;;;;;;37.00;24.25;;;;;;;;5104294;27;62226;-76
2023/01/25 08:16:03;;;;;;;;;38.00;23.75;;;;;;;;5103273;27;61737;-75
2023/01/25 08:18:28;;;;;;;;;21.50;15.75;;;;;;;;5104842;27;61708;-75
2023/01/25 08:20:56;;;;;;;;;30.25;22.00;;;;;;;;5104778;27;61706;-75
2023/01/25 08:23:22;;;;;;;;;16.00;13.50;;;;;;;;5104064;27;61954;-76
2023/01/25 08:25:47;;;;;;;;;21.75;16.00;;;;;;;;5104396;27;61799;-76
2023/01/25 08:28:12;;;;;;;;;23.25;18.25;;;;;;;;5104121;27;61750;-76
2023/01/25 08:30:38;;;;;;;;;22.75;17.50;;;;;;;;5105091;27;61745;-76
2023/01/25 08:33:03;;;;;;;;;21.50;15.50;;;;;;;;5103966;27;61967;-76
2023/01/25 08:35:28;;;;;;;;;17.00;11.00;;;;;;;;5104574;27;61797;-77
2023/01/25 08:37:53;;;;;;;;;22.75;16.75;;;;;;;;5102677;27;61857;-76
2023/01/25 08:40:19;;;;;;;;;16.50;12.25;;;;;;;;5104710;27;61753;-76
2023/01/25 08:42:44;;;;;;;;;18.25;13.00;;;;;;;;5103916;27;62810;-77
2023/01/25 08:45:10;;;;;;;;;23.00;14.50;;;;;;;;5102824;27;62082;-76
2023/01/25 08:47:35;;;;;;;;;24.75;16.75;;;;;;;;5104736;27;61874;-77
2023/01/25 08:50:00;;;;;;;;;26.75;19.75;;;;;;;;5104358;27;61889;-77
2023/01/25 08:52:26;;;;;;;;;30.25;22.50;;;;;;;;5102157;27;63360;-76
2023/01/25 08:54:51;;;;;;;;;18.25;15.75;;;;;;;;5102243;27;61887;-76
2023/01/25 08:57:16;;;;;;;;;23.00;15.00;;;;;;;;5103993;27;62018;-77
2023/01/25 08:59:43;;;;;;;;;14.25;11.75;;;;;;;;5103644;27;61878;-76
2023/01/25 09:02:10;;;;;;;;;28.75;14.25;;;;;;;;5103187;27;62802;-78
2023/01/25 09:04:36;;;;;;;;;23.00;15.00;;;;;;;;5110553;27;61805;-75
2023/01/25 09:07:01;;;;;;;;;22.25;16.50;;;;;;;;5109219;27;61815;-75
2023/01/25 09:09:28;;;;;;;;;18.25;12.75;;;;;;;;5108105;27;61759;-74
2023/01/25 09:11:55;;;;;;;;;16.50;10.00;;;;;;;;5108798;27;64601;-74
2023/01/25 09:14:20;;;;;;;;;18.75;15.50;;;;;;;;5102882;27;62192;-77
2023/01/25 09:16:46;;;;;;;;;27.00;20.00;;;;;;;;5103949;27;61771;-76
2023/01/25 09:19:12;;;;;;;;;10.00;8.50;;;;;;;;5102886;27;61817;-75
2023/01/25 09:21:38;;;;;;;;;29.50;23.50;;;;;;;;5083594;27;63753;-76
2023/01/25 09:24:03;;;;;;;;;23.75;18.00;;;;;;;;5083421;27;61704;-75
2023/01/25 09:26:29;;;;;;;;;16.00;12.75;;;;;;;;5083191;28;62147;-75
2023/01/25 09:28:54;;;;;;;;;28.25;19.00;;;;;;;;5083617;28;62139;-75
2023/01/25 09:31:20;;;;;;;;;16.25;15.25;;;;;;;;5082690;28;61895;-75
2023/01/25 09:33:45;;;;;;;;;26.00;17.00;;;;;;;;5081970;28;61877;-75
2023/01/25 09:36:10;;;;;;;;;28.00;18.75;;;;;;;;5081576;28;61755;-75
2023/01/25 09:38:36;;;;;;;;;24.25;17.50;;;;;;;;5092310;27;61961;-75
2023/01/25 09:41:11;;;;;;;;;27.25;20.25;;;;;;;;5102416;27;61701;-76
2023/01/25 09:43:56;;;;;;;;;24.75;17.75;;;;;;;;5102220;27;61821;-81
2023/01/25 09:46:31;;;;;;;;;37.00;24.50;;;;;;;;5102344;27;61949;-76
2023/01/25 09:49:06;;;;;;;;;17.75;13.50;;;;;;;;5102672;27;61759;-76
2023/01/25 09:51:54;;;;;;;;;25.00;18.25;;;;;;;;5101741;27;62916;-79
2023/01/25 09:54:21;;;;;;;;;19.00;15.50;;;;;;;;5021386;28;62148;-78
2023/01/25 09:56:47;;;;;;;;;19.50;14.75;;;;;;;;5022441;28;61936;-78
2023/01/25 09:59:16;;;;;;;;;32.50;19.75;;;;;;;;5022594;28;61724;-78
2023/01/25 10:01:41;;;;;;;;;22.50;18.75;;;;;;;;5038763;28;61765;-78
2023/01/25 10:04:12;;;;;;;;;27.00;20.25;;;;;;;;5022604;28;62973;-79
2023/01/25 10:06:38;;;;;;;;;22.00;19.00;;;;;;;;5039726;28;61983;-78
2023/01/25 10:09:19;;;;;;;;;24.00;16.00;;;;;;;;5038994;28;62133;-79
2023/01/25 10:11:44;;;;;;;;;21.75;15.75;;;;;;;;5022397;28;61992;-79
2023/01/25 10:14:14;;;;;;;;;23.75;17.50;;;;;;;;5039460;28;62090;-78
2023/01/25 10:16:49;;;;;;;;;25.25;17.00;;;;;;;;5021939;28;62051;-78
2023/01/25 10:19:14;;;;;;;;;25.50;16.75;;;;;;;;5039926;28;61762;-78
2023/01/25 10:21:43;;;;;;;;;22.00;21.25;;;;;;;;5004129;28;62106;-78
2023/01/25 10:24:26;;;;;;;;;25.25;17.00;;;;;;;;5018990;28;62043;-78
2023/01/25 10:26:58;;;;;;;;;23.75;20.50;;;;;;;;5019773;28;61909;-78
2023/01/25 10:29:23;;;;;;;;;23.00;16.50;;;;;;;;5019876;28;61671;-78
2023/01/25 10:31:53;;;;;;;;;27.50;15.75;;;;;;;;5055170;28;61734;-78
2023/01/25 10:34:20;;;;;;;;;13.75;11.75;;;;;;;;5080932;28;61939;-78
2023/01/25 10:36:47;;;;;;;;;26.50;18.00;;;;;;;;5082380;27;61850;-78
2023/01/25 10:39:12;;;;;;;;;26.75;12.50;;;;;;;;5095579;27;61736;-78
2023/01/25 10:41:40;;;;;;;;;21.75;18.25;;;;;;;;5102329;27;61921;-78
2023/01/25 10:44:25;;;;;;;;;27.25;19.25;;;;;;;;5102794;27;61680;-78
2023/01/25 10:46:53;;;;;;;;;34.50;26.75;;;;;;;;5100684;27;61882;-78
2023/01/25 10:49:18;;;;;;;;;29.25;18.50;;;;;;;;5102748;27;62044;-78
2023/01/25 10:51:44;;;;;;;;;30.75;27.75;;;;;;;;5101760;27;62530;-78
2023/01/25 10:54:12;;;;;;;;;29.00;22.50;;;;;;;;5102425;27;61904;-78
2023/01/25 10:56:38;;;;;;;;;30.25;18.75;;;;;;;;5102715;27;61736;-78
2023/01/25 10:59:05;;;;;;;;;26.25;21.50;;;;;;;;5103094;27;61772;-78
2023/01/25 11:01:33;;;;;;;;;20.50;16.25;;;;;;;;5100238;27;63932;-78
2023/01/25 11:03:58;;;;;;;;;17.00;14.00;;;;;;;;5101728;27;61734;-78
2023/01/25 11:06:34;;;;;;;;;29.00;21.50;;;;;;;;5101436;27;61718;-79
2023/01/25 11:09:01;;;;;;;;;28.75;23.00;;;;;;;;5100426;27;62236;-78
2023/01/25 11:11:36;;;;;;;;;20.25;17.00;;;;;;;;5101550;27;62872;-79
2023/01/25 11:14:14;;;;;;;;;23.25;19.75;;;;;;;;5102740;27;61791;-80
2023/01/25 11:16:39;;;;;;;;;29.75;19.25;;;;;;;;5101078;27;61891;-76
2023/01/25 11:19:23;;;;;;;;;19.75;15.25;;;;;;;;5102562;27;61863;-73
2023/01/25 11:21:57;;;;;;;;;33.00;23.50;;;;;;;;5081514;27;61913;-73
2023/01/25 11:24:28;;;;;;;;;20.00;17.75;;;;;;;;5079892;28;61715;-73
2023/01/25 11:27:13;;;;;;;;;30.50;21.50;;;;;;;;5082789;28;61831;-73
2023/01/25 11:29:38;;;;;;;;;31.75;22.75;;;;;;;;5085166;27;61816;-73
2023/01/25 11:32:13;;;;;;;;;29.50;23.50;;;;;;;;5084795;28;62761;-73
2023/01/25 11:34:39;;;;;;;;;45.00;30.75;;;;;;;;5083414;28;61997;-73
2023/01/25 11:37:07;;;;;;;;;28.25;23.75;;;;;;;;5100183;27;61875;-72
2023/01/25 11:39:32;;;;;;;;;28.25;16.50;;;;;;;;5102454;27;61987;-73
2023/01/25 11:42:18;;;;;;;;;32.25;23.50;;;;;;;;5105129;27;61974;-73
2023/01/25 11:44:43;;;;;;;;;34.50;23.00;;;;;;;;5100294;27;61917;-73
2023/01/25 11:47:11;;;;;;;;;28.50;21.50;;;;;;;;5105505;27;62096;-74
2023/01/25 11:49:50;;;;;;;;;34.50;22.25;;;;;;;;5105132;27;61688;-76
2023/01/25 11:52:15;;;;;;;;;38.25;24.75;;;;;;;;5103295;27;65041;-72
2023/01/25 11:54:43;;;;;;;;;36.50;23.00;;;;;;;;5104937;27;61810;-72
2023/01/25 11:57:17;;;;;;;;;24.75;21.75;;;;;;;;5105379;27;61770;-72
2023/01/25 12:00:01;;;;;;;;;25.50;21.00;;;;;;;;5104658;27;62047;-73
2023/01/25 12:02:29;;;;;;;;;30.00;23.50;;;;;;;;5104811;27;62786;-72
2023/01/25 12:05:13;;;;;;;;;41.00;24.75;;;;;;;;5104477;27;61999;-73
2023/01/25 12:07:58;;;;;;;;;43.25;27.00;;;;;;;;5104583;27;61938;-72
2023/01/25 12:10:39;;;;;;;;;28.25;18.00;;;;;;;;5105019;27;61778;-73
2023/01/25 12:13:33;;;;;;;;;39.75;29.75;;;;;;;;5102868;27;62098;-73
2023/01/25 12:16:05;;;;;;;;;41.75;25.50;;;;;;;;5094022;27;62015;-75
2023/01/25 12:18:49;;;;;;;;;49.25;33.75;;;;;;;;5105021;27;61719;-75
2023/01/25 12:21:23;;;;;;;;;37.75;30.75;;;;;;;;5090318;27;61866;-73
2023/01/25 12:23:49;;;;;;;;;37.00;29.75;;;;;;;;5081880;28;63748;-75
2023/01/25 12:26:21;;;;;;;;;51.00;38.75;;;;;;;;5083951;28;61781;-74
2023/01/25 12:28:46;;;;;;;;;62.00;44.00;;;;;;;;5083649;28;61832;-75
2023/01/25 12:31:17;;;;;;;;;48.50;38.75;;;;;;;;5084143;28;61744;-77
2023/01/25 12:33:46;;;;;;;;;45.75;34.00;;;;;;;;5081805;28;63409;-76
2023/01/25 12:36:18;;;;;;;;;48.75;40.00;;;;;;;;5093426;27;61805;-71
2023/01/25 12:39:05;;;;;;;;;51.25;37.50;;;;;;;;5100429;27;61962;-79
2023/01/25 12:41:49;;;;;;;;;45.00;25.75;;;;;;;;5102678;27;62273;-74
2023/01/25 12:44:14;;;;;;;;;46.75;37.75;;;;;;;;5101490;27;62765;-75
2023/01/25 12:46:50;;;;;;;;;42.50;33.25;;;;;;;;5099793;27;61834;-75
2023/01/25 12:49:25;;;;;;;;;52.50;36.75;;;;;;;;5100638;27;61853;-75
2023/01/25 12:51:52;;;;;;;;;54.50;36.75;;;;;;;;5098629;27;61777;-75
2023/01/25 12:54:37;;;;;;;;;50.00;36.25;;;;;;;;5101861;27;61846;-75
2023/01/25 12:57:21;;;;;;;;;44.50;32.25;;;;;;;;5100596;27;61807;-73
2023/01/25 12:59:46;;;;;;;;;40.75;36.75;;;;;;;;5092221;27;61806;-74
2023/01/25 13:02:30;;;;;;;;;46.75;36.50;;;;;;;;5102157;27;62188;-73
2023/01/25 13:05:14;;;;;;;;;45.75;35.00;;;;;;;;5099650;27;62295;-74
2023/01/25 13:07:53;;;;;;;;;46.50;34.50;;;;;;;;5100441;27;61832;-76
2023/01/25 13:10:29;;;;;;;;;55.50;40.00;;;;;;;;5107432;27;61997;-76
2023/01/25 13:12:59;;;;;;;;;49.75;34.50;;;;;;;;5116449;27;62168;-75
2023/01/25 13:15:36;;;;;;;;;42.50;33.25;;;;;;;;5107530;27;62621;-74
2023/01/25 13:18:14;;;;;;;;;51.25;37.00;;;;;;;;5103116;27;61998;-74
2023/01/25 13:20:40;;;;;;;;;52.25;37.25;;;;;;;;5102340;27;61940;-74
2023/01/25 13:23:25;;;;;;;;;48.75;32.00;;;;;;;;5110132;27;61910;-74
2023/01/25 13:25:50;;;;;;;;;59.25;35.25;;;;;;;;5136592;27;62045;-74
2023/01/25 13:28:39;;;;;;;;;49.25;35.25;;;;;;;;5102131;27;62090;-74
2023/01/25 13:31:05;;;;;;;;;57.50;32.75;;;;;;;;5100924;27;61955;-74
2023/01/25 13:33:31;;;;;;;;;52.00;41.00;;;;;;;;5101427;27;62142;-74
2023/01/25 13:35:56;;;;;;;;;46.75;37.25;;;;;;;;5103761;27;63803;-74
2023/01/25 13:38:30;;;;;;;;;47.75;35.25;;;;;;;;5113398;27;62056;-73
2023/01/25 13:41:10;;;;;;;;;55.50;36.75;;;;;;;;5101983;27;62082;-74
2023/01/25 13:43:36;;;;;;;;;36.75;32.00;;;;;;;;5116436;27;61867;-74
2023/01/25 13:46:03;;;;;;;;;48.00;36.50;;;;;;;;5114028;27;61916;-74
2023/01/25 13:48:30;;;;;;;;;44.50;34.25;;;;;;;;5110727;27;61785;-75
2023/01/25 13:51:05;;;;;;;;;44.75;35.75;;;;;;;;5114322;27;61825;-73
2023/01/25 13:53:34;;;;;;;;;53.25;38.75;;;;;;;;5100095;27;61908;-75
2023/01/25 13:56:00;;;;;;;;;35.00;31.75;;;;;;;;5098675;27;62036;-74
2023/01/25 13:58:26;;;;;;;;;48.75;34.75;;;;;;;;5097563;27;61802;-74
2023/01/25 14:01:00;;;;;;;;;52.75;37.25;;;;;;;;5097321;27;61924;-74
2023/01/25 14:03:31;;;;;;;;;69.50;45.50;;;;;;;;5100905;27;61870;-73
2023/01/25 14:06:04;;;;;;;;;60.75;37.00;;;;;;;;5100292;27;61794;-74
2023/01/25 14:08:30;;;;;;;;;59.75;37.25;;;;;;;;5098200;27;62004;-73
2023/01/25 14:10:56;;;;;;;;;50.25;34.25;;;;;;;;5101373;27;62255;-74
2023/01/25 14:13:21;;;;;;;;;48.00;41.00;;;;;;;;5102074;27;61846;-74
2023/01/25 14:15:54;;;;;;;;;50.75;40.50;;;;;;;;5100538;27;61798;-73
2023/01/25 14:18:21;;;;;;;;;50.25;34.50;;;;;;;;5100138;27;61881;-73
2023/01/25 14:20:50;;;;;;;;;58.75;44.75;;;;;;;;5101366;27;61755;-72
2023/01/25 14:23:21;;;;;;;;;42.25;33.00;;;;;;;;5099789;27;61784;-72
2023/01/25 14:25:46;;;;;;;;;47.75;38.50;;;;;;;;5100040;27;61862;-72